EDJA METAR and TAF | Updated Today

EDJA METAR

Memmingen Allgau Airport

Observation time: 22 min. ago

EDJA 011520Z 26016KT 9999 SCT023 BKN026 BKN046 03/M01 Q1022

Need help? Read our tutorial on how to read METARs or read the parsed version below.

Memmingen Allgau Airport (EDJA) METAR

  • Weather conditions on Wed, 01 Feb 2023 15:20:00 +0000 (22 min. ago):
  • Present conditions: Dry
  • Clouds: Scattered at 701 meters; broken sky at 792 meters; broken sky at 1402 meters
  • Visibility: Greater than 10 km
  • Wind: 260 degrees at 16 knots
  • Temperature: 3 celsius
  • Dew point: -1 celsius
  • Pressure: 1022 millibars
  • Remarks: None


Useful to know...

EDJA TAF

Memmingen Allgau Airport

TAF EDJA 011400Z 0115/0124 24015G30KT 9999 FEW015 BKN030 PROB30 TEMPO 0122/0124 4000 SNRA BKN010
Observation time: 1:42 hr. ago
Need help? Read our tutorial on how to read TAFs or read the parsed version below.

Parsed version of TAF for Memmingen Allgau Airport (EDJA)

  • From 01 February at 15:00 UTC, to day 01 of the month at 24:00 UTC
  • Clouds: A few at 457 meters; broken sky at 914 meters
  • Visibility: Greater than 10 km
  • Wind: 240 degrees at 15
  • Expected to arise temporarily, from 01 February at 22:00 UTC, to day 01 of the month at 24:00 UTC
    Probability of 30%
  • Clouds: Broken sky at 305 meters
  • Visibility: 4000 meters
  • Other: Snow rain